createdAt,value
2022-12-26T00:00:35.099Z,100487.34
2022-12-26T00:03:22.216Z,100481.69
2022-12-26T00:06:13.855Z,100492.25
2022-12-26T00:09:02.326Z,100488.53
2022-12-26T00:11:48.945Z,100485.84
2022-12-26T00:14:35.808Z,100479.50
2022-12-26T00:17:23.992Z,100476.75
2022-12-26T00:20:11.714Z,100481.38
2022-12-26T00:22:58.461Z,100474.22
2022-12-26T00:25:45.515Z,100460.56
2022-12-26T00:28:32.577Z,100458.75
2022-12-26T00:31:21.888Z,100446.53
2022-12-26T00:34:11.338Z,100452.94
2022-12-26T00:36:57.876Z,100439.25
2022-12-26T00:39:46.220Z,100447.66
2022-12-26T00:42:34.001Z,100432.56
2022-12-26T00:45:20.749Z,100435.22
2022-12-26T00:48:07.742Z,100423.97
2022-12-26T00:50:56.379Z,100427.50
2022-12-26T00:53:43.116Z,100435.25
2022-12-26T00:56:29.990Z,100434.31
2022-12-26T00:59:16.885Z,100418.34
2022-12-26T01:02:23.834Z,100426.34
2022-12-26T01:05:12.486Z,100411.50
2022-12-26T01:08:23.311Z,100413.03
2022-12-26T01:11:09.580Z,100398.03
2022-12-26T01:13:57.074Z,100401.47
2022-12-26T01:16:48.525Z,100405.78
2022-12-26T01:19:35.357Z,100403.28
2022-12-26T01:22:22.196Z,100397.94
2022-12-26T01:25:12.193Z,100407.41
2022-12-26T01:27:59.101Z,100401.28
2022-12-26T01:30:45.821Z,100398.44
2022-12-26T01:33:32.993Z,100406.25
2022-12-26T01:36:20.631Z,100388.78
2022-12-26T01:39:07.560Z,100407.28
2022-12-26T01:41:55.940Z,100408.97
2022-12-26T01:45:22.930Z,100385.31
2022-12-26T01:48:20.064Z,100382.53
2022-12-26T01:51:07.962Z,100381.44
2022-12-26T01:54:37.558Z,100380.59
2022-12-26T01:57:13.588Z,100382.69
2022-12-26T02:00:02.833Z,100377.59
2022-12-26T02:03:18.246Z,100385.13
2022-12-26T02:06:06.576Z,100375.31
2022-12-26T02:08:55.256Z,100375.44
2022-12-26T02:11:48.699Z,100365.66
2022-12-26T02:14:58.493Z,100364.75
2022-12-26T02:17:45.237Z,100377.91
2022-12-26T02:20:42.290Z,100364.72
2022-12-26T02:23:58.585Z,100355.88
2022-12-26T02:27:22.770Z,100366.63
2022-12-26T02:30:34.621Z,100352.81
2022-12-26T02:33:29.931Z,100358.03
2022-12-26T02:36:28.614Z,100365.81
2022-12-26T02:39:44.373Z,100364.00
2022-12-26T02:42:44.062Z,100360.63
2022-12-26T02:45:57.518Z,100346.59
2022-12-26T02:48:54.430Z,100352.75
2022-12-26T02:52:09.113Z,100342.22
2022-12-26T02:55:28.804Z,100343.66
2022-12-26T02:58:39.063Z,100356.78
2022-12-26T03:01:49.763Z,100346.59
2022-12-26T03:04:58.556Z,100357.06
2022-12-26T03:08:04.763Z,100345.84
2022-12-26T03:11:10.968Z,100347.38
2022-12-26T03:14:06.315Z,100352.38
2022-12-26T03:17:18.728Z,100354.69
2022-12-26T03:20:12.418Z,100371.53
2022-12-26T03:23:02.999Z,100370.72
2022-12-26T03:26:17.665Z,100358.16
2022-12-26T03:29:19.147Z,100346.63
2022-12-26T03:32:13.815Z,100312.16
2022-12-26T03:35:00.538Z,100350.22
2022-12-26T03:37:54.054Z,100365.31
2022-12-26T03:41:07.931Z,100357.16
2022-12-26T03:44:37.273Z,100351.75
2022-12-26T03:47:48.207Z,100362.19
2022-12-26T03:50:56.733Z,100349.41
2022-12-26T03:54:07.227Z,100351.75
2022-12-26T03:57:14.330Z,100359.72
2022-12-26T04:00:23.503Z,100362.03
2022-12-26T04:03:32.479Z,100364.81
2022-12-26T04:06:39.829Z,100366.75
2022-12-26T04:09:51.319Z,100360.44
2022-12-26T04:12:58.901Z,100352.38
2022-12-26T04:16:07.268Z,100370.97
2022-12-26T04:19:28.615Z,100374.47
2022-12-26T04:22:42.175Z,100381.03
2022-12-26T04:25:51.860Z,100368.44
2022-12-26T04:28:56.379Z,100376.03
2022-12-26T04:32:07.355Z,100376.09
2022-12-26T04:35:21.709Z,100391.63
2022-12-26T04:38:28.933Z,100388.88
2022-12-26T04:41:35.961Z,100376.63
2022-12-26T04:44:24.495Z,100384.66
2022-12-26T04:47:12.387Z,100385.31
2022-12-26T04:50:13.663Z,100385.75
2022-12-26T04:53:01.453Z,100389.25
2022-12-26T04:55:47.968Z,100399.94
2022-12-26T04:58:34.832Z,100396.34
2022-12-26T05:01:39.087Z,100396.38
2022-12-26T05:04:44.059Z,100396.19
2022-12-26T05:07:53.270Z,100358.66
2022-12-26T05:10:44.022Z,100390.28
2022-12-26T05:13:30.643Z,100394.16
2022-12-26T05:16:34.777Z,100400.28
2022-12-26T05:19:38.978Z,100397.69
2022-12-26T05:22:45.613Z,100394.06
2022-12-26T05:25:53.946Z,100406.47
2022-12-26T05:28:43.631Z,100405.19
2022-12-26T05:31:37.611Z,100402.72
2022-12-26T05:34:24.358Z,100404.66
2022-12-26T05:37:11.171Z,100409.13
2022-12-26T05:39:58.346Z,100414.25
2022-12-26T05:42:49.677Z,100409.53
2022-12-26T05:45:36.751Z,100408.25
2022-12-26T05:48:23.423Z,100418.47
2022-12-26T05:51:10.462Z,100430.78
2022-12-26T05:53:56.899Z,100428.13
2022-12-26T05:56:49.102Z,100419.41
2022-12-26T05:59:37.766Z,100426.88
2022-12-26T06:02:24.890Z,100428.59
2022-12-26T06:05:11.679Z,100434.69
2022-12-26T06:07:58.561Z,100441.66
2022-12-26T06:10:45.459Z,100444.06
2022-12-26T06:13:32.313Z,100448.97
2022-12-26T06:16:21.113Z,100430.00
2022-12-26T06:19:07.757Z,100447.06
2022-12-26T06:21:54.495Z,100446.03
2022-12-26T06:24:41.190Z,100440.09
2022-12-26T06:27:28.275Z,100445.63
2022-12-26T06:30:15.002Z,100440.13
2022-12-26T06:33:02.882Z,100440.03
2022-12-26T06:35:49.761Z,100435.81
2022-12-26T06:38:37.418Z,100426.06
2022-12-26T06:41:25.105Z,100437.06
2022-12-26T06:44:17.891Z,100437.50
2022-12-26T06:47:04.966Z,100437.44
2022-12-26T06:49:53.269Z,100446.44
2022-12-26T06:52:40.105Z,100455.13
2022-12-26T06:55:27.018Z,100468.41
2022-12-26T06:58:13.875Z,100475.31
2022-12-26T07:01:05.814Z,100481.72
2022-12-26T07:03:54.094Z,100490.38
2022-12-26T07:06:42.131Z,100494.03
2022-12-26T07:09:33.653Z,100501.03
2022-12-26T07:12:22.135Z,100497.41
2022-12-26T07:15:10.337Z,100495.56
2022-12-26T07:17:58.258Z,100497.28
2022-12-26T07:20:44.948Z,100502.78
2022-12-26T07:23:33.159Z,100512.84
2022-12-26T07:26:19.981Z,100510.81
2022-12-26T07:29:06.694Z,100505.47
2022-12-26T07:31:53.567Z,100517.13
2022-12-26T07:34:40.334Z,100508.13
2022-12-26T07:37:27.222Z,100517.94
2022-12-26T07:40:15.686Z,100521.44
2022-12-26T07:43:02.771Z,100517.81
2022-12-26T07:45:49.758Z,100526.03
2022-12-26T07:48:36.265Z,100517.94
2022-12-26T07:51:24.237Z,100524.75
2022-12-26T07:54:12.015Z,100535.28
2022-12-26T07:57:29.782Z,100533.09
2022-12-26T08:00:08.836Z,100533.59
2022-12-26T08:03:07.247Z,100536.97
2022-12-26T08:05:55.067Z,100542.25
2022-12-26T08:08:46.863Z,100529.69
2022-12-26T08:11:37.037Z,100539.66
2022-12-26T08:14:25.270Z,100533.25
2022-12-26T08:17:12.030Z,100536.19
2022-12-26T08:19:59.083Z,100526.38
2022-12-26T08:22:45.869Z,100521.38
2022-12-26T08:25:32.850Z,100533.13
2022-12-26T08:28:19.940Z,100528.25
2022-12-26T08:31:09.404Z,100547.53
2022-12-26T08:33:58.138Z,100544.88
2022-12-26T08:36:44.712Z,100551.22
2022-12-26T08:39:31.597Z,100546.31
2022-12-26T08:42:18.443Z,100530.91
2022-12-26T08:45:05.708Z,100543.00
2022-12-26T08:47:55.770Z,100542.09
2022-12-26T08:50:42.810Z,100535.56
2022-12-26T08:53:32.866Z,100543.50
2022-12-26T08:56:22.877Z,100550.56
2022-12-26T08:59:10.334Z,100559.25
2022-12-26T09:01:57.452Z,100552.06
2022-12-26T09:04:45.624Z,100562.63
2022-12-26T09:07:33.361Z,100558.25
2022-12-26T09:10:20.323Z,100553.13
2022-12-26T09:13:07.263Z,100546.09
2022-12-26T09:15:54.179Z,100559.47
2022-12-26T09:18:41.989Z,100562.97
2022-12-26T09:21:30.970Z,100561.97
2022-12-26T09:24:19.181Z,100570.94
2022-12-26T09:27:05.908Z,100570.91
2022-12-26T09:29:52.741Z,100575.44
2022-12-26T09:32:39.751Z,100588.03
2022-12-26T09:35:26.553Z,100576.56
2022-12-26T09:38:14.709Z,100571.38
2022-12-26T09:41:13.600Z,100564.25
2022-12-26T09:44:07.677Z,100571.25
2022-12-26T09:47:08.906Z,100580.72
2022-12-26T09:49:58.948Z,100577.94
2022-12-26T09:52:51.578Z,100579.59
2022-12-26T09:55:45.866Z,100568.97
2022-12-26T09:58:36.300Z,100573.59
2022-12-26T10:01:27.630Z,100578.69
2022-12-26T10:04:26.732Z,100580.53
2022-12-26T10:07:26.860Z,100582.59
2022-12-26T10:10:16.011Z,100574.41
2022-12-26T10:13:12.605Z,100571.81
2022-12-26T10:16:07.111Z,100568.31
2022-12-26T10:19:02.404Z,100570.84
2022-12-26T10:21:57.167Z,100584.72
2022-12-26T10:24:45.953Z,100585.44
2022-12-26T10:27:41.182Z,100597.94
2022-12-26T10:30:36.747Z,100594.47
2022-12-26T10:33:39.789Z,100610.34
2022-12-26T10:36:35.468Z,100600.44
2022-12-26T10:39:29.016Z,100595.28
2022-12-26T10:42:27.632Z,100594.75
2022-12-26T10:45:18.017Z,100597.84
2022-12-26T10:48:07.197Z,100595.28
2022-12-26T10:50:54.105Z,100601.78
2022-12-26T10:53:44.193Z,100593.03
2022-12-26T10:56:33.468Z,100572.53
2022-12-26T10:59:25.268Z,100589.06
2022-12-26T11:02:24.190Z,100590.75
2022-12-26T11:08:40.805Z,100598.50
2022-12-26T11:11:46.271Z,100595.31
2022-12-26T11:14:39.000Z,100593.63
2022-12-26T11:17:28.067Z,100597.13
2022-12-26T11:20:31.668Z,100608.25
2022-12-26T11:23:27.844Z,100608.03
2022-12-26T11:26:23.321Z,100610.75
2022-12-26T11:29:14.477Z,100606.09
2022-12-26T11:32:03.485Z,100611.22
2022-12-26T11:34:51.804Z,100604.50
2022-12-26T11:37:45.797Z,100602.13
2022-12-26T11:40:38.666Z,100597.63
2022-12-26T11:43:26.803Z,100596.84
2022-12-26T11:46:14.202Z,100592.06
2022-12-26T11:49:01.449Z,100591.13
2022-12-26T11:51:54.161Z,100562.84
2022-12-26T11:54:51.485Z,100617.25
2022-12-26T11:57:38.386Z,100612.19
2022-12-26T12:00:26.595Z,100611.78
2022-12-26T12:03:16.228Z,100616.09
2022-12-26T12:06:08.790Z,100616.09
2022-12-26T12:09:05.991Z,100599.94
2022-12-26T12:12:03.952Z,100597.69
2022-12-26T12:15:01.838Z,100601.09
2022-12-26T12:17:57.063Z,100589.03
2022-12-26T12:21:00.073Z,100593.22
2022-12-26T12:24:18.423Z,100603.88
2022-12-26T12:27:16.832Z,100582.50
2022-12-26T12:30:31.747Z,100592.34
2022-12-26T12:33:33.082Z,100592.44
2022-12-26T12:36:28.574Z,100597.59
2022-12-26T12:39:21.167Z,100584.41
2022-12-26T12:42:35.628Z,100571.97
2022-12-26T12:45:27.981Z,100579.31
2022-12-26T12:48:35.985Z,100574.03
2022-12-26T12:51:34.473Z,100574.16
2022-12-26T12:54:55.790Z,100573.28
2022-12-26T12:57:50.563Z,100579.56
2022-12-26T13:00:43.798Z,100577.84
2022-12-26T13:03:37.977Z,100579.75
2022-12-26T13:06:30.059Z,100582.13
2022-12-26T13:09:20.253Z,100569.22
2022-12-26T13:12:09.014Z,100569.69
2022-12-26T13:15:01.596Z,100567.41
2022-12-26T13:17:53.224Z,100568.72
2022-12-26T13:20:43.620Z,100574.84
2022-12-26T13:23:51.728Z,100573.06
2022-12-26T13:26:41.224Z,100569.06
2022-12-26T13:29:37.982Z,100576.94
2022-12-26T13:32:29.024Z,100574.72
2022-12-26T13:35:53.463Z,100574.38
2022-12-26T13:39:24.624Z,100576.88
2022-12-26T13:42:46.493Z,100568.63
2022-12-26T13:45:58.234Z,100567.72
2022-12-26T13:49:28.112Z,100567.84
2022-12-26T13:52:35.207Z,100563.44
2022-12-26T13:55:44.451Z,100543.09
2022-12-26T13:58:44.956Z,100580.78
2022-12-26T14:01:43.965Z,100567.50
2022-12-26T14:04:48.907Z,100580.66
2022-12-26T14:07:45.813Z,100577.97
2022-12-26T14:10:41.097Z,100585.84
2022-12-26T14:13:52.192Z,100589.34
2022-12-26T14:16:47.718Z,100589.22
2022-12-26T14:19:47.027Z,100593.47
2022-12-26T14:22:43.813Z,100595.84
2022-12-26T14:25:38.170Z,100590.63
2022-12-26T14:28:30.484Z,100600.44
2022-12-26T14:31:24.813Z,100605.69
2022-12-26T14:34:24.734Z,100595.09
2022-12-26T14:37:21.690Z,100590.75
2022-12-26T14:40:25.036Z,100596.91
2022-12-26T14:43:24.811Z,100591.81
2022-12-26T14:47:01.122Z,100593.97
2022-12-26T14:49:48.679Z,100591.34
2022-12-26T14:52:41.477Z,100596.63
2022-12-26T14:55:48.050Z,100599.25
2022-12-26T14:58:40.542Z,100589.59
2022-12-26T15:02:12.052Z,100593.13
2022-12-26T15:05:09.638Z,100583.59
2022-12-26T15:08:26.583Z,100581.09
2022-12-26T15:11:40.081Z,100590.50
2022-12-26T15:14:56.292Z,100586.25
2022-12-26T15:17:51.728Z,100600.44
2022-12-26T15:21:10.700Z,100591.66
2022-12-26T15:25:16.430Z,100596.53
2022-12-26T15:28:15.874Z,100603.56
2022-12-26T15:31:30.801Z,100604.00
2022-12-26T15:34:38.814Z,100587.16
2022-12-26T15:37:37.688Z,100603.56
2022-12-26T15:40:29.677Z,100589.66
2022-12-26T15:43:50.192Z,100599.19
2022-12-26T15:46:42.765Z,100588.75
2022-12-26T15:49:50.647Z,100587.03
2022-12-26T15:52:48.256Z,100586.91
2022-12-26T15:55:48.216Z,100578.44
2022-12-26T15:58:54.142Z,100582.91
2022-12-26T16:01:42.964Z,100582.16
2022-12-26T16:04:34.084Z,100583.03
2022-12-26T16:07:28.618Z,100586.50
2022-12-26T16:10:30.071Z,100578.91
2022-12-26T16:13:23.098Z,100585.75
2022-12-26T16:16:10.828Z,100581.56
2022-12-26T16:18:57.979Z,100589.44
2022-12-26T16:22:05.936Z,100588.63
2022-12-26T16:24:54.125Z,100596.56
2022-12-26T16:27:41.677Z,100587.50
2022-12-26T16:30:36.266Z,100591.38
2022-12-26T16:33:23.372Z,100600.00
2022-12-26T16:36:12.030Z,100600.00
2022-12-26T16:38:58.997Z,100616.69
2022-12-26T16:42:00.217Z,100627.94
2022-12-26T16:44:47.499Z,100628.78
2022-12-26T16:47:35.845Z,100632.19
2022-12-26T16:50:24.557Z,100648.22
2022-12-26T16:53:13.876Z,100656.34
2022-12-26T16:56:28.813Z,100657.88
2022-12-26T16:59:18.717Z,100672.13
2022-12-26T17:02:05.997Z,100670.72
2022-12-26T17:05:00.509Z,100663.16
2022-12-26T17:07:50.738Z,100656.16
2022-12-26T17:10:38.988Z,100652.69
2022-12-26T17:13:27.817Z,100645.84
2022-12-26T17:16:14.795Z,100638.06
2022-12-26T17:19:12.224Z,100637.69
2022-12-26T17:22:21.303Z,100651.28
2022-12-26T17:25:26.540Z,100642.72
2022-12-26T17:28:25.053Z,100653.28
2022-12-26T17:31:15.161Z,100623.97
2022-12-26T17:34:06.340Z,100651.75
2022-12-26T17:37:18.551Z,100666.72
2022-12-26T17:40:08.079Z,100663.19
2022-12-26T17:42:56.710Z,100660.75
2022-12-26T17:45:47.114Z,100658.13
2022-12-26T17:48:35.433Z,100661.66
2022-12-26T17:51:22.357Z,100666.91
2022-12-26T17:54:10.148Z,100666.19
2022-12-26T17:56:58.524Z,100671.31
2022-12-26T17:59:45.513Z,100671.50
2022-12-26T18:02:32.133Z,100683.03
2022-12-26T18:05:20.131Z,100689.06
2022-12-26T18:08:07.537Z,100688.03
2022-12-26T18:10:54.944Z,100689.69
2022-12-26T18:13:44.476Z,100679.94
2022-12-26T18:16:31.045Z,100687.88
2022-12-26T18:19:20.239Z,100656.66
2022-12-26T18:22:11.635Z,100700.03
2022-12-26T18:24:58.185Z,100711.56
2022-12-26T18:27:45.786Z,100718.53
2022-12-26T18:30:34.089Z,100709.03
2022-12-26T18:33:20.805Z,100716.25
2022-12-26T18:36:08.050Z,100721.41
2022-12-26T18:38:54.910Z,100730.22
2022-12-26T18:41:41.662Z,100721.56
2022-12-26T18:44:28.424Z,100725.22
2022-12-26T18:47:18.796Z,100723.53
2022-12-26T18:50:11.409Z,100729.78
2022-12-26T18:52:58.837Z,100729.81
2022-12-26T18:55:45.384Z,100740.56
2022-12-26T18:58:32.096Z,100739.88
2022-12-26T19:01:20.657Z,100748.91
2022-12-26T19:04:08.764Z,100773.72
2022-12-26T19:06:55.581Z,100765.13
2022-12-26T19:09:44.822Z,100775.06
2022-12-26T19:12:31.618Z,100792.69
2022-12-26T19:15:18.897Z,100790.25
2022-12-26T19:18:07.550Z,100808.72
2022-12-26T19:20:56.082Z,100819.38
2022-12-26T19:23:44.078Z,100827.50
2022-12-26T19:26:32.013Z,100818.78
2022-12-26T19:29:20.512Z,100824.00
2022-12-26T19:32:09.784Z,100834.50
2022-12-26T19:34:58.815Z,100831.88
2022-12-26T19:37:47.806Z,100839.00
2022-12-26T19:40:36.631Z,100858.28
2022-12-26T19:43:25.229Z,100864.47
2022-12-26T19:46:16.788Z,100851.38
2022-12-26T19:49:05.839Z,100862.94
2022-12-26T19:51:54.427Z,100874.41
2022-12-26T19:54:44.235Z,100885.50
2022-12-26T19:57:33.680Z,100880.25
2022-12-26T20:00:22.613Z,100899.53
2022-12-26T20:03:11.346Z,100909.28
2022-12-26T20:06:01.532Z,100911.16
2022-12-26T20:08:50.899Z,100912.84
2022-12-26T20:11:42.281Z,100927.00
2022-12-26T20:14:30.358Z,100932.25
2022-12-26T20:17:18.910Z,100939.28
2022-12-26T20:20:08.153Z,100929.72
2022-12-26T20:22:56.906Z,100943.00
2022-12-26T20:25:44.917Z,100952.72
2022-12-26T20:28:35.655Z,100955.28
2022-12-26T20:31:24.232Z,100950.09
2022-12-26T20:34:13.617Z,100948.31
2022-12-26T20:37:05.432Z,100952.72
2022-12-26T20:39:54.674Z,100955.47
2022-12-26T20:42:43.532Z,100952.78
2022-12-26T20:45:32.819Z,100949.25
2022-12-26T20:48:21.731Z,100944.94
2022-12-26T20:51:14.380Z,100956.34
2022-12-26T20:54:03.197Z,100960.81
2022-12-26T20:56:50.918Z,100960.91
2022-12-26T20:59:39.706Z,100967.94
2022-12-26T21:02:29.800Z,100974.91
2022-12-26T21:05:20.274Z,100978.41
2022-12-26T21:08:09.004Z,100984.53
2022-12-26T21:11:00.920Z,100992.41
2022-12-26T21:13:50.927Z,100990.66
2022-12-26T21:16:40.814Z,100991.66
2022-12-26T21:19:31.917Z,101000.44
2022-12-26T21:22:20.850Z,101002.25
2022-12-26T21:25:09.429Z,101004.88
2022-12-26T21:27:59.434Z,101011.03
2022-12-26T21:30:47.793Z,100991.81
2022-12-26T21:33:44.516Z,101004.06
2022-12-26T21:36:35.973Z,101018.94
2022-12-26T21:39:30.673Z,101012.84
2022-12-26T21:42:18.408Z,101030.31
2022-12-26T21:45:08.811Z,101027.72
2022-12-26T21:47:57.793Z,101036.38
2022-12-26T21:50:47.986Z,101039.03
2022-12-26T21:53:42.180Z,101042.56
2022-12-26T21:56:36.504Z,101050.38
2022-12-26T21:59:47.909Z,101057.41
2022-12-26T22:03:06.673Z,101065.25
2022-12-26T22:05:55.406Z,101080.09
2022-12-26T22:08:56.512Z,101077.47
2022-12-26T22:12:03.540Z,101075.75
2022-12-26T22:14:52.792Z,101080.13
2022-12-26T22:17:40.799Z,101088.88
2022-12-26T22:20:29.008Z,101099.34
2022-12-26T22:23:16.793Z,101095.84
2022-12-26T22:26:07.303Z,101093.19
2022-12-26T22:28:56.065Z,101102.84
2022-12-26T22:31:45.204Z,101103.75
2022-12-26T22:34:34.302Z,101112.47
2022-12-26T22:37:22.796Z,101131.72
2022-12-26T22:40:13.737Z,101143.06
2022-12-26T22:43:03.670Z,101143.94
2022-12-26T22:45:52.186Z,101152.72
2022-12-26T22:48:52.322Z,101155.34
2022-12-26T22:51:42.964Z,101160.63
2022-12-26T22:54:31.155Z,101166.72
2022-12-26T22:57:18.798Z,101180.72
2022-12-26T23:00:12.063Z,101175.50
2022-12-26T23:03:01.944Z,101185.09
2022-12-26T23:05:50.575Z,101190.34
2022-12-26T23:08:39.734Z,101192.97
2022-12-26T23:11:34.993Z,101195.63
2022-12-26T23:14:24.728Z,101195.59
2022-12-26T23:17:39.374Z,101179.00
2022-12-26T23:20:51.133Z,101184.25
2022-12-26T23:23:39.915Z,101191.25
2022-12-26T23:26:30.212Z,101199.97
2022-12-26T23:29:38.677Z,101203.50
2022-12-26T23:32:32.924Z,101207.88
2022-12-26T23:35:24.897Z,101207.84
2022-12-26T23:38:14.432Z,101207.88
2022-12-26T23:41:03.916Z,101205.25
2022-12-26T23:43:58.378Z,101207.88
2022-12-26T23:46:47.114Z,101199.13
2022-12-26T23:49:37.891Z,101200.88
2022-12-26T23:52:30.004Z,101196.50
2022-12-26T23:55:18.906Z,101198.25
2022-12-26T23:58:05.810Z,101195.63
